Time;durP1;ratioP1;P1;durP2;ratioP2;P2;SDS_P1;SDS_P2;PMS_P1;PMS_P2;Temp;Humidity;BMP_temperature;BMP_pressure;BME280_temperature;BME280_humidity;BME280_pressure;Samples;Min_cycle;Max_cycle;Signal;HPM_P1;HPM_P2
2022/07/01 00:01:34;;;;;;;4.40;3.55;;;;;;;28.22;39.34;100806.50;5055032;28;20503;-65
2022/07/01 00:04:02;;;;;;;6.35;3.58;;;;;;;28.21;39.55;100813.03;5057163;28;20422;-64
2022/07/01 00:06:29;;;;;;;6.55;3.70;;;;;;;28.19;39.31;100817.94;5045321;28;20417;-63
2022/07/01 00:08:56;;;;;;;4.00;3.30;;;;;;;28.14;39.59;100815.28;5047462;28;20499;-65
2022/07/01 00:11:23;;;;;;;4.32;3.63;;;;;;;28.01;39.49;100814.81;5039146;28;20504;-65
2022/07/01 00:13:50;;;;;;;4.10;3.50;;;;;;;27.87;40.18;100819.25;5046378;28;20475;-63
2022/07/01 00:16:17;;;;;;;5.45;3.70;;;;;;;27.78;40.00;100826.41;5043780;28;20795;-64
2022/07/01 00:18:44;;;;;;;4.00;3.70;;;;;;;27.67;40.31;100836.56;5047541;28;20523;-63
2022/07/01 00:21:14;;;;;;;6.00;3.60;;;;;;;27.64;40.26;100832.50;5038706;28;20421;-63
2022/07/01 00:23:41;;;;;;;4.80;4.00;;;;;;;27.63;40.72;100833.59;5039424;28;20418;-63
2022/07/01 00:26:08;;;;;;;5.60;3.72;;;;;;;27.62;40.71;100823.81;5044070;28;20511;-62
2022/07/01 00:28:35;;;;;;;6.88;4.00;;;;;;;27.61;40.89;100838.50;5049902;28;20431;-65
2022/07/01 00:31:02;;;;;;;6.38;3.85;;;;;;;27.60;40.98;100834.16;5040547;28;20786;-63
2022/07/01 00:34:43;;;;;;;6.32;3.70;;;;;;;27.57;40.52;100839.34;5064628;28;20778;-63
2022/07/01 00:37:10;;;;;;;6.28;3.67;;;;;;;27.55;40.44;100841.53;5064850;28;20668;-63
2022/07/01 00:39:37;;;;;;;3.88;3.45;;;;;;;27.51;40.90;100841.28;5064715;28;20499;-66
2022/07/01 00:42:05;;;;;;;4.20;3.80;;;;;;;27.51;40.80;100837.75;5062800;28;20499;-63
2022/07/01 00:44:33;;;;;;;6.20;3.60;;;;;;;27.50;41.14;100839.66;5065021;28;20496;-65
2022/07/01 00:47:03;;;;;;;5.35;3.90;;;;;;;27.49;40.50;100842.66;5064056;28;20411;-66
2022/07/01 00:49:31;;;;;;;4.97;4.00;;;;;;;27.47;40.79;100837.50;5064400;28;20561;-64
2022/07/01 00:51:59;;;;;;;6.43;3.92;;;;;;;27.45;40.89;100847.84;5063956;28;20495;-63
2022/07/01 00:54:27;;;;;;;5.40;3.70;;;;;;;27.46;40.60;100844.03;5059533;28;20430;-63
2022/07/01 00:56:54;;;;;;;4.45;3.67;;;;;;;27.41;40.84;100844.06;5052400;28;20418;-64
2022/07/01 00:59:21;;;;;;;6.40;3.47;;;;;;;27.38;40.62;100839.97;5064095;28;20420;-64
2022/07/01 01:01:48;;;;;;;4.90;3.72;;;;;;;27.40;41.08;100848.69;5064925;28;20424;-63
2022/07/01 01:04:15;;;;;;;4.53;3.80;;;;;;;27.41;40.97;100838.63;5058884;28;20515;-64
2022/07/01 01:06:42;;;;;;;4.30;3.60;;;;;;;27.42;41.00;100832.91;5064387;28;20420;-66
2022/07/01 01:09:11;;;;;;;4.32;3.88;;;;;;;27.43;41.23;100828.25;5050507;28;20426;-65
2022/07/01 01:11:38;;;;;;;4.13;3.67;;;;;;;27.43;40.23;100820.91;5063906;28;20412;-65
2022/07/01 01:14:05;;;;;;;5.40;3.95;;;;;;;27.40;40.34;100821.44;5063431;28;20809;-64
2022/07/01 01:16:33;;;;;;;4.82;3.67;;;;;;;27.41;40.65;100836.72;5056671;28;20456;-66
2022/07/01 01:19:02;;;;;;;6.40;3.90;;;;;;;27.38;40.31;100831.00;5050637;28;20946;-65
2022/07/01 01:21:30;;;;;;;5.38;3.90;;;;;;;27.37;40.63;100845.69;5057915;28;20424;-64
2022/07/01 01:23:58;;;;;;;4.25;3.70;;;;;;;27.36;40.53;100844.91;5063842;28;20913;-65
2022/07/01 01:26:56;;;;;;;4.95;3.65;;;;;;;27.34;40.68;100844.34;5092637;27;2145553;-61
2022/07/01 01:29:23;;;;;;;5.40;3.70;;;;;;;27.32;40.29;100848.47;5150633;27;20410;-65
2022/07/01 01:31:50;;;;;;;4.05;3.55;;;;;;;27.31;40.79;100852.28;5150558;27;20806;-63
2022/07/01 01:34:17;;;;;;;5.18;3.65;;;;;;;27.29;40.75;100846.28;5157360;27;20510;-64
2022/07/01 01:36:44;;;;;;;4.88;3.80;;;;;;;27.24;40.61;100850.66;5146231;27;20937;-61
2022/07/01 01:39:38;;;;;;;6.00;3.72;;;;;;;27.21;40.62;100855.84;5085201;27;20411;-66
2022/07/01 01:42:06;;;;;;;4.03;3.50;;;;;;;27.18;41.08;100862.63;5085648;28;20425;-65
2022/07/01 01:44:33;;;;;;;5.32;3.70;;;;;;;27.14;41.24;100872.44;5084912;28;20923;-66
2022/07/01 01:47:00;;;;;;;4.20;3.83;;;;;;;27.08;41.38;100876.25;5084058;28;20501;-67
2022/07/01 01:49:27;;;;;;;6.43;3.83;;;;;;;27.03;41.09;100876.31;5084119;28;20414;-69
2022/07/01 01:51:54;;;;;;;4.83;3.73;;;;;;;26.99;41.68;100875.19;5083953;28;20501;-67
2022/07/01 01:54:21;;;;;;;6.13;4.10;;;;;;;26.94;41.36;100881.50;5083972;28;20489;-62
2022/07/01 01:56:50;;;;;;;7.00;4.60;;;;;;;26.89;41.38;100885.03;5083817;28;20560;-65
2022/07/01 01:59:16;;;;;;;4.97;4.05;;;;;;;26.85;41.33;100883.94;5071672;28;20432;-65
2022/07/01 02:01:43;;;;;;;6.25;4.20;;;;;;;26.82;41.81;100889.94;5079697;28;20410;-65
2022/07/01 02:04:23;;;;;;;6.97;4.35;;;;;;;26.81;41.67;100890.19;5091902;27;20398;-64
2022/07/01 02:06:50;;;;;;;4.82;4.32;;;;;;;26.77;41.72;100887.22;5084407;28;20418;-63
2022/07/01 02:09:17;;;;;;;8.60;4.10;;;;;;;26.76;41.74;100882.03;5083871;28;20505;-66
2022/07/01 02:11:44;;;;;;;4.53;4.07;;;;;;;26.74;41.71;100889.66;5084169;28;20417;-66
2022/07/01 02:14:11;;;;;;;7.65;4.45;;;;;;;26.69;42.11;100885.06;5077498;28;20414;-64
2022/07/01 02:16:38;;;;;;;5.88;4.03;;;;;;;26.67;42.25;100879.09;5083779;28;20912;-66
2022/07/01 02:19:05;;;;;;;4.88;3.90;;;;;;;26.66;42.10;100882.88;5083113;28;21134;-66
2022/07/01 02:21:33;;;;;;;4.75;3.58;;;;;;;26.64;41.60;100890.50;5084318;28;20414;-66
2022/07/01 02:24:00;;;;;;;4.57;3.95;;;;;;;26.65;41.79;100898.41;5082926;28;20425;-64
2022/07/01 02:26:27;;;;;;;4.30;3.90;;;;;;;26.64;41.97;100894.03;5080935;28;20424;-63
2022/07/01 02:28:54;;;;;;;6.68;3.88;;;;;;;26.55;41.79;100898.38;5080634;28;20415;-66
2022/07/01 02:31:21;;;;;;;5.70;3.90;;;;;;;26.57;41.97;100909.78;5066941;28;20505;-65
2022/07/01 02:33:48;;;;;;;4.30;3.85;;;;;;;26.58;41.96;100910.59;5071637;28;20425;-65
2022/07/01 02:36:15;;;;;;;4.80;3.85;;;;;;;26.53;42.25;100914.13;5081956;28;20502;-65
2022/07/01 02:38:43;;;;;;;5.85;3.70;;;;;;;26.50;42.21;100914.66;5078054;28;20499;-66
2022/07/01 02:41:10;;;;;;;5.40;3.78;;;;;;;26.46;42.17;100914.41;5072745;28;20499;-64
2022/07/01 02:43:38;;;;;;;4.50;3.60;;;;;;;26.42;42.18;100915.22;5083384;28;20430;-64
2022/07/01 02:46:05;;;;;;;6.47;3.65;;;;;;;26.37;42.38;100918.75;5083873;28;20422;-67
2022/07/01 02:48:32;;;;;;;6.85;3.70;;;;;;;26.39;42.25;100913.84;5084016;28;20414;-67
2022/07/01 02:50:59;;;;;;;7.25;4.03;;;;;;;26.40;42.36;100923.66;5083397;28;20990;-65
2022/07/01 02:53:25;;;;;;;5.45;3.85;;;;;;;26.37;42.04;100920.66;5083407;28;20501;-66
2022/07/01 02:55:54;;;;;;;6.78;3.90;;;;;;;26.33;42.70;100931.25;5076080;28;20822;-63
2022/07/01 02:58:21;;;;;;;4.20;3.80;;;;;;;26.30;42.33;100938.03;5076565;28;20769;-64
2022/07/01 03:00:52;;;;;;;4.22;3.70;;;;;;;26.32;42.28;100937.75;5079047;28;20513;-67
2022/07/01 03:03:19;;;;;;;6.28;3.80;;;;;;;26.34;42.40;100938.31;5082913;28;20459;-64
2022/07/01 03:05:47;;;;;;;5.03;3.80;;;;;;;26.35;42.34;100936.44;5083651;28;20817;-63
2022/07/01 03:08:14;;;;;;;6.72;4.00;;;;;;;26.35;42.48;100947.28;5081576;28;20414;-63
2022/07/01 03:10:40;;;;;;;5.13;3.77;;;;;;;26.31;42.54;100953.25;5083121;28;20833;-63
2022/07/01 03:13:09;;;;;;;7.07;3.92;;;;;;;26.32;42.28;100959.50;5083102;28;20410;-63
2022/07/01 03:15:36;;;;;;;7.30;3.95;;;;;;;26.34;42.40;100962.75;5070234;28;20441;-67
2022/07/01 03:18:03;;;;;;;4.90;4.18;;;;;;;26.40;42.13;100960.88;5069567;28;20518;-67
2022/07/01 03:20:30;;;;;;;4.63;4.13;;;;;;;26.45;42.00;100966.31;5069529;28;20864;-64
2022/07/01 03:22:56;;;;;;;4.53;3.60;;;;;;;26.49;41.82;100964.72;5067009;28;20422;-63
2022/07/01 03:25:24;;;;;;;4.50;4.05;;;;;;;26.54;42.21;100955.72;5069833;28;20418;-64
2022/07/01 03:27:51;;;;;;;6.90;3.90;;;;;;;26.59;42.15;100966.59;5069205;28;21855;-64
2022/07/01 03:30:20;;;;;;;4.60;4.00;;;;;;;26.64;41.61;100967.44;5069883;28;20415;-65
2022/07/01 03:32:47;;;;;;;10.00;3.97;;;;;;;26.67;41.68;100966.91;5069310;28;20410;-63
2022/07/01 03:37:59;;;;;;;7.95;3.95;;;;;;;26.79;41.47;100985.66;5053773;28;20403;-64
2022/07/01 03:40:25;;;;;;;9.50;4.20;;;;;;;26.80;41.89;100986.50;5062441;28;20446;-64
2022/07/01 03:42:52;;;;;;;6.15;4.05;;;;;;;26.79;41.66;100979.41;5059236;28;20907;-64
2022/07/01 03:45:21;;;;;;;5.35;4.10;;;;;;;26.81;41.81;100986.22;5066460;28;20418;-64
2022/07/01 03:47:48;;;;;;;7.05;4.68;;;;;;;26.92;41.60;100976.16;5057769;28;20920;-64
2022/07/01 03:50:15;;;;;;;5.43;4.10;;;;;;;27.03;41.65;100979.69;5065377;28;20430;-63
2022/07/01 03:52:42;;;;;;;6.50;4.63;;;;;;;27.12;41.39;100979.91;5070918;28;20502;-63
2022/07/01 03:55:09;;;;;;;7.65;4.90;;;;;;;27.20;40.95;100972.03;5070460;28;20498;-63
2022/07/01 03:57:36;;;;;;;6.33;4.20;;;;;;;27.31;41.18;100977.47;5070167;28;20468;-63
2022/07/01 04:00:04;;;;;;;8.23;4.47;;;;;;;27.35;40.81;100981.28;5055278;28;20423;-64
2022/07/01 04:02:33;;;;;;;6.55;4.47;;;;;;;27.43;41.01;100983.44;5067378;28;20501;-63
2022/07/01 04:05:00;;;;;;;13.43;6.33;;;;;;;27.52;40.68;100989.94;5066457;28;20415;-63
2022/07/01 04:07:27;;;;;;;16.20;5.90;;;;;;;27.62;40.73;100989.91;5068669;28;20789;-63
2022/07/01 04:09:54;;;;;;;7.93;5.43;;;;;;;27.72;40.77;100985.53;5067955;28;20902;-63
2022/07/01 04:12:22;;;;;;;9.55;5.40;;;;;;;27.82;40.48;100982.72;5067994;28;20992;-64
2022/07/01 04:14:49;;;;;;;7.05;4.40;;;;;;;27.93;40.06;100983.53;5068868;28;20542;-63
2022/07/01 04:17:16;;;;;;;9.95;4.78;;;;;;;28.02;39.99;100985.41;5066081;28;20954;-64
2022/07/01 04:19:44;;;;;;;7.53;4.95;;;;;;;28.26;39.56;100994.81;5068095;28;20486;-63
2022/07/01 04:24:56;;;;;;;7.70;4.82;;;;;;;28.50;39.39;100997.66;5065486;28;20558;-63
2022/07/01 04:27:23;;;;;;;7.70;3.92;;;;;;;28.60;38.96;100983.97;5066448;28;20509;-66
2022/07/01 04:29:49;;;;;;;10.57;4.75;;;;;;;28.70;38.98;100994.81;5069978;28;20527;-64
2022/07/01 04:32:16;;;;;;;46.90;7.63;;;;;;;28.82;38.92;100997.16;5070260;28;20493;-66
2022/07/01 04:34:45;;;;;;;13.48;4.80;;;;;;;28.92;38.57;100994.34;5069517;28;20499;-64
2022/07/01 04:37:12;;;;;;;9.50;4.40;;;;;;;29.04;38.56;100999.41;5067497;28;20494;-65
2022/07/01 04:39:39;;;;;;;8.25;4.78;;;;;;;29.14;38.68;101006.69;5065663;28;20869;-63
2022/07/01 04:42:06;;;;;;;7.50;4.55;;;;;;;29.29;38.37;101006.56;5069729;28;21008;-63
2022/07/01 04:44:35;;;;;;;7.68;4.63;;;;;;;29.36;38.28;101004.31;5066579;28;20480;-63
2022/07/01 04:47:03;;;;;;;5.73;4.30;;;;;;;29.45;38.39;101000.94;5069430;28;20454;-63
2022/07/01 04:49:30;;;;;;;7.82;4.50;;;;;;;29.59;38.19;101004.63;5066114;28;20419;-66
2022/07/01 04:51:59;;;;;;;8.55;4.72;;;;;;;29.69;37.98;101009.13;5067602;28;20411;-64
2022/07/01 04:54:26;;;;;;;6.25;4.40;;;;;;;29.79;37.98;101008.25;5065352;28;20413;-65
2022/07/01 04:56:53;;;;;;;6.72;5.00;;;;;;;29.87;37.82;101016.59;5066584;28;20535;-63
2022/07/01 04:59:20;;;;;;;5.20;4.65;;;;;;;29.96;37.72;101011.28;5069317;28;20458;-64
2022/07/01 05:01:49;;;;;;;6.30;4.70;;;;;;;30.08;37.73;101013.59;5065448;28;20486;-64
2022/07/01 05:04:17;;;;;;;8.35;6.28;;;;;;;30.18;37.50;101005.25;5053255;28;20440;-65
2022/07/01 05:06:44;;;;;;;9.23;5.03;;;;;;;30.30;37.07;101005.59;5051659;28;20425;-64
2022/07/01 05:09:12;;;;;;;5.03;4.45;;;;;;;30.42;36.98;101007.94;5051383;28;20428;-64
2022/07/01 05:11:40;;;;;;;8.00;4.77;;;;;;;30.55;36.76;101005.56;5052947;28;20413;-64
2022/07/01 05:14:07;;;;;;;6.55;4.78;;;;;;;30.67;36.62;101011.38;5052860;28;21012;-64
2022/07/01 05:16:34;;;;;;;9.10;5.38;;;;;;;30.75;36.86;101012.63;5058155;28;20502;-64
2022/07/01 05:21:59;;;;;;;7.97;4.80;;;;;;;30.89;36.21;101008.00;5061290;28;20402;-64
2022/07/01 05:24:30;;;;;;;7.45;4.72;;;;;;;31.01;36.22;101002.91;5062570;28;20445;-65
2022/07/01 05:26:58;;;;;;;8.55;4.95;;;;;;;31.09;36.35;101001.38;5068915;28;20461;-64
2022/07/01 05:29:25;;;;;;;8.02;4.65;;;;;;;31.16;35.69;101001.00;5068280;28;20837;-63
2022/07/01 05:31:52;;;;;;;7.35;4.72;;;;;;;31.30;35.82;101007.31;5068427;28;20979;-64
2022/07/01 05:34:19;;;;;;;6.75;4.80;;;;;;;31.35;35.12;101003.63;5068778;28;20425;-64
2022/07/01 05:36:46;;;;;;;7.68;4.90;;;;;;;31.46;35.05;101007.81;5063863;28;20450;-63
2022/07/01 05:39:13;;;;;;;8.50;4.53;;;;;;;31.57;34.90;101013.94;5057987;28;20496;-66
2022/07/01 05:41:41;;;;;;;8.30;6.00;;;;;;;31.71;35.02;101012.00;5053856;28;20494;-65
2022/07/01 05:44:08;;;;;;;9.80;5.60;;;;;;;31.86;34.61;101018.28;5050965;28;20439;-66
2022/07/01 05:46:36;;;;;;;7.63;4.75;;;;;;;31.96;34.35;101005.19;5050889;28;20448;-66
2022/07/01 05:49:03;;;;;;;6.65;5.32;;;;;;;32.00;34.44;101008.91;5053463;28;20422;-66
2022/07/01 05:51:30;;;;;;;8.38;5.10;;;;;;;32.14;34.56;101005.34;5054831;28;20432;-68
2022/07/01 05:53:57;;;;;;;11.10;5.43;;;;;;;32.20;33.61;101002.19;5050733;28;20503;-65
2022/07/01 05:56:25;;;;;;;8.80;5.13;;;;;;;32.36;33.36;101002.66;5051766;28;20424;-67
2022/07/01 05:58:54;;;;;;;8.65;4.90;;;;;;;32.43;33.00;100996.75;5054092;28;20412;-65
2022/07/01 06:01:21;;;;;;;8.30;5.30;;;;;;;32.53;33.55;101001.97;5052084;28;20483;-66
2022/07/01 06:03:48;;;;;;;8.23;5.22;;;;;;;32.63;33.06;101000.13;5051145;28;20507;-66
2022/07/01 06:06:15;;;;;;;8.00;5.30;;;;;;;32.61;33.58;101008.69;5050998;28;20530;-67
2022/07/01 06:08:41;;;;;;;11.60;5.28;;;;;;;32.70;33.40;101012.31;5062203;28;20506;-66
2022/07/01 06:11:09;;;;;;;9.40;5.20;;;;;;;32.78;33.42;101013.47;5064102;28;20991;-68
2022/07/01 06:13:36;;;;;;;6.97;5.10;;;;;;;32.63;33.42;101011.94;5056753;28;20805;-68
2022/07/01 06:16:05;;;;;;;10.20;5.40;;;;;;;33.01;32.94;101011.50;5050813;28;20452;-67
2022/07/01 06:18:32;;;;;;;9.27;5.43;;;;;;;33.33;32.00;101009.56;5062685;28;21686;-67
2022/07/01 06:20:59;;;;;;;10.85;5.45;;;;;;;33.47;31.83;101007.53;5068043;28;20802;-67
2022/07/01 06:23:26;;;;;;;7.00;5.10;;;;;;;33.68;31.74;101018.78;5064044;28;20507;-68
2022/07/01 06:25:53;;;;;;;7.25;5.35;;;;;;;33.84;31.46;101021.91;5062331;28;20521;-70
2022/07/01 06:28:20;;;;;;;9.25;5.47;;;;;;;33.91;31.35;101015.94;5054210;28;20985;-67
2022/07/01 06:30:46;;;;;;;7.80;5.20;;;;;;;34.09;31.24;101020.31;5051135;28;20504;-68
2022/07/01 06:33:15;;;;;;;9.68;5.57;;;;;;;34.23;30.95;101022.97;5062377;28;20415;-69
2022/07/01 06:35:42;;;;;;;8.00;5.17;;;;;;;34.29;30.84;101029.13;5068234;28;20506;-67
2022/07/01 06:38:09;;;;;;;9.15;5.10;;;;;;;34.72;30.51;101025.56;5067823;28;20415;-67
2022/07/01 06:42:18;;;;;;;8.32;5.00;;;;;;;35.04;29.67;101024.19;5076050;28;20403;-65
2022/07/01 06:44:45;;;;;;;9.98;5.55;;;;;;;35.11;29.74;101020.91;5065782;28;20495;-66
2022/07/01 06:47:14;;;;;;;11.93;5.18;;;;;;;35.62;29.33;101018.28;5065801;28;20929;-67
2022/07/01 06:49:41;;;;;;;8.98;5.45;;;;;;;36.09;29.17;101014.63;5065610;28;20423;-66
2022/07/01 06:52:08;;;;;;;10.88;5.60;;;;;;;36.46;27.97;101015.59;5055027;28;20420;-65
2022/07/01 06:54:35;;;;;;;8.35;5.63;;;;;;;36.44;27.85;101015.13;5066174;28;20506;-66
2022/07/01 06:57:03;;;;;;;9.05;5.38;;;;;;;36.61;27.46;101008.66;5065580;28;20806;-66
2022/07/01 06:59:31;;;;;;;10.02;5.28;;;;;;;36.63;27.96;101005.56;5065309;28;20798;-66
2022/07/01 07:01:58;;;;;;;8.35;5.50;;;;;;;36.31;28.11;101007.97;5064370;28;20519;-67
2022/07/01 07:04:26;;;;;;;8.52;5.53;;;;;;;36.14;28.15;101009.69;5048416;28;20457;-66
2022/07/01 07:06:52;;;;;;;10.30;5.68;;;;;;;35.62;28.92;101007.25;5062831;28;21013;-65
2022/07/01 07:09:19;;;;;;;9.45;5.43;;;;;;;35.48;29.37;101010.25;5065367;28;20423;-68
2022/07/01 07:11:46;;;;;;;10.13;6.20;;;;;;;35.48;29.92;101003.94;5049686;28;20502;-65
2022/07/01 07:14:13;;;;;;;7.72;5.53;;;;;;;35.58;29.29;101000.78;5055075;28;20795;-65
2022/07/01 07:16:42;;;;;;;8.13;5.33;;;;;;;35.51;29.38;101000.50;5065323;28;20495;-65
2022/07/01 07:19:09;;;;;;;9.30;6.05;;;;;;;35.48;29.64;101001.19;5065002;28;20921;-65
2022/07/01 07:21:37;;;;;;;9.52;6.10;;;;;;;35.23;29.98;101006.47;5065265;28;20478;-65
2022/07/01 07:24:04;;;;;;;8.88;5.90;;;;;;;34.71;30.44;101006.59;5060434;28;20499;-66
2022/07/01 07:26:31;;;;;;;7.38;5.68;;;;;;;34.65;31.00;101011.44;5054571;28;21011;-64
2022/07/01 07:28:58;;;;;;;7.00;5.60;;;;;;;34.51;31.07;101016.31;5049841;28;20421;-65
2022/07/01 07:31:25;;;;;;;8.20;5.70;;;;;;;34.57;31.30;101010.28;5057701;28;20421;-63
2022/07/01 07:33:53;;;;;;;9.80;5.80;;;;;;;34.74;31.23;101009.50;5061912;28;20420;-65
2022/07/01 07:36:20;;;;;;;8.18;5.80;;;;;;;34.66;31.55;101013.88;5065191;28;20443;-65
2022/07/01 07:38:47;;;;;;;9.45;5.90;;;;;;;34.42;31.62;100999.81;5064714;28;20858;-64
2022/07/01 07:41:14;;;;;;;8.95;6.38;;;;;;;34.35;31.97;101002.25;5064953;28;20485;-65
2022/07/01 07:43:41;;;;;;;17.80;8.88;;;;;;;34.48;31.49;101001.25;5062718;28;20451;-64
2022/07/01 07:46:08;;;;;;;13.05;6.40;;;;;;;34.19;32.17;101002.72;5064581;28;20424;-64
2022/07/01 07:48:35;;;;;;;8.20;6.53;;;;;;;34.04;32.43;101003.19;5065060;28;20435;-65
2022/07/01 07:51:03;;;;;;;11.07;5.90;;;;;;;33.88;32.86;101002.81;5064406;28;20427;-64
2022/07/01 07:53:30;;;;;;;9.90;6.63;;;;;;;33.36;33.50;101008.94;5044876;28;20425;-64
2022/07/01 07:55:57;;;;;;;9.27;6.43;;;;;;;33.19;33.86;100995.13;5051400;28;20417;-64
2022/07/01 07:58:24;;;;;;;9.88;6.35;;;;;;;32.93;34.16;100998.53;5051442;28;20421;-64
2022/07/01 08:00:51;;;;;;;9.18;6.68;;;;;;;32.92;34.83;100999.69;5051253;28;20436;-67
2022/07/01 08:03:18;;;;;;;10.37;6.57;;;;;;;33.06;34.51;100996.81;5051497;28;20511;-66
2022/07/01 08:05:45;;;;;;;8.43;6.20;;;;;;;33.17;34.57;100989.16;5042369;28;21009;-64
2022/07/01 08:08:13;;;;;;;9.80;6.70;;;;;;;33.03;34.35;100990.03;5051170;28;20420;-65
2022/07/01 08:10:40;;;;;;;8.43;6.70;;;;;;;32.95;34.62;100993.53;5051199;28;20859;-65
2022/07/01 08:13:07;;;;;;;9.32;6.60;;;;;;;32.92;34.96;100988.69;5050731;28;20507;-63
2022/07/01 08:15:34;;;;;;;11.55;6.20;;;;;;;33.03;34.67;100990.03;5043793;28;20484;-66
2022/07/01 08:18:01;;;;;;;12.63;6.78;;;;;;;33.05;35.38;100992.47;5041758;28;20507;-66
2022/07/01 08:20:28;;;;;;;9.77;6.60;;;;;;;33.03;35.05;100989.22;5050469;28;20804;-66
2022/07/01 08:22:55;;;;;;;10.00;5.72;;;;;;;33.02;34.43;100991.16;5048863;28;20500;-66
2022/07/01 08:25:24;;;;;;;9.15;6.55;;;;;;;32.87;34.77;100997.88;5047062;28;20448;-66
2022/07/01 08:27:51;;;;;;;7.37;6.23;;;;;;;32.45;35.12;100999.97;5040199;28;20423;-66
2022/07/01 08:30:17;;;;;;;7.35;6.60;;;;;;;32.70;34.96;100997.75;5032508;28;20418;-66
2022/07/01 08:32:44;;;;;;;7.10;6.00;;;;;;;32.81;34.80;100998.28;5043893;28;20519;-67
2022/07/01 08:35:12;;;;;;;9.40;5.97;;;;;;;32.90;34.92;100985.44;5045819;28;20924;-66
2022/07/01 08:37:39;;;;;;;9.80;6.30;;;;;;;32.94;34.64;100990.00;5048484;28;20508;-68
2022/07/01 08:40:07;;;;;;;7.38;5.75;;;;;;;32.99;34.87;100980.81;5039059;28;20593;-66
2022/07/01 08:42:36;;;;;;;9.25;6.07;;;;;;;33.00;34.82;100979.69;5050683;28;20431;-66
2022/07/01 08:45:03;;;;;;;8.48;6.05;;;;;;;33.03;34.84;100981.81;5048677;28;20826;-66
2022/07/01 08:47:31;;;;;;;10.30;5.93;;;;;;;32.93;34.90;100979.31;5046805;28;20853;-67
2022/07/01 08:50:01;;;;;;;8.70;6.00;;;;;;;33.04;34.76;100977.09;5040316;28;21033;-67
2022/07/01 08:52:29;;;;;;;10.73;6.00;;;;;;;32.90;34.31;100979.94;5049778;28;20428;-66
2022/07/01 08:54:56;;;;;;;9.32;6.10;;;;;;;32.89;34.37;100981.88;5049443;28;20413;-66
2022/07/01 08:57:24;;;;;;;11.20;6.40;;;;;;;33.05;34.36;100976.78;5047120;28;20503;-66
2022/07/01 09:00:04;;;;;;;9.48;5.85;;;;;;;33.05;34.61;100971.31;5049165;28;20798;-66
2022/07/01 09:02:53;;;;;;;8.27;5.60;;;;;;;33.11;33.38;100972.78;5049445;28;20507;-66
2022/07/01 09:05:22;;;;;;;7.90;5.80;;;;;;;33.12;33.41;100973.59;5049019;28;20444;-66
2022/07/01 09:07:50;;;;;;;8.13;5.78;;;;;;;32.94;33.49;100976.25;5050301;28;20496;-66
2022/07/01 09:10:19;;;;;;;6.47;5.30;;;;;;;32.84;33.96;100972.97;5048801;28;20990;-66
2022/07/01 09:12:47;;;;;;;5.80;5.10;;;;;;;32.89;34.13;100961.84;5049068;28;20428;-66
2022/07/01 09:15:25;;;;;;;8.47;5.53;;;;;;;32.94;34.15;100962.53;5050121;28;20893;-66
2022/07/01 09:17:52;;;;;;;8.90;5.30;;;;;;;33.02;33.52;100969.19;5050282;28;20492;-66
2022/07/01 09:20:27;;;;;;;7.18;5.50;;;;;;;33.00;33.75;100965.94;5049754;28;20802;-66
2022/07/01 09:23:06;;;;;;;11.00;5.10;;;;;;;33.11;33.50;100972.78;5042824;28;20430;-65
2022/07/01 09:25:37;;;;;;;7.10;4.80;;;;;;;33.22;32.90;100975.28;5045711;28;20408;-66
2022/07/01 09:28:08;;;;;;;8.98;5.30;;;;;;;33.18;33.14;100971.56;5034072;28;20414;-66
2022/07/01 09:30:38;;;;;;;8.80;5.53;;;;;;;33.43;33.06;100981.81;5046770;28;20491;-66
2022/07/01 09:33:10;;;;;;;7.55;5.82;;;;;;;33.43;33.16;100976.31;5048024;28;20500;-66
2022/07/01 09:35:37;;;;;;;9.52;5.55;;;;;;;33.71;33.31;100976.91;5030036;28;20497;-66
2022/07/01 09:38:05;;;;;;;9.00;5.30;;;;;;;33.74;31.91;100967.22;5045397;28;20469;-66
2022/07/01 09:40:55;;;;;;;9.02;5.68;;;;;;;33.91;31.55;100977.44;5044623;28;20424;-66
2022/07/01 09:43:24;;;;;;;7.20;5.05;;;;;;;33.75;31.99;100966.09;5045546;28;20492;-66
2022/07/01 09:45:56;;;;;;;8.05;5.10;;;;;;;33.77;31.63;100965.78;5041373;28;20418;-66
2022/07/01 09:48:24;;;;;;;8.15;5.03;;;;;;;33.80;31.70;100963.19;5044155;28;20495;-66
2022/07/01 09:50:51;;;;;;;6.43;5.18;;;;;;;33.75;31.30;100959.78;5048783;28;20504;-66
2022/07/01 09:53:19;;;;;;;8.93;5.10;;;;;;;33.97;31.49;100958.84;5049549;28;20413;-66
2022/07/01 09:55:46;;;;;;;6.80;5.00;;;;;;;34.12;31.11;100955.59;5047296;28;20973;-66
2022/07/01 09:58:14;;;;;;;8.60;4.75;;;;;;;34.14;30.84;100953.34;5048987;28;20488;-67
2022/07/01 10:00:41;;;;;;;7.03;4.90;;;;;;;34.07;30.68;100953.03;5045969;28;20494;-67
2022/07/01 10:03:10;;;;;;;8.33;5.23;;;;;;;34.28;30.75;100953.97;5034261;28;20943;-66
2022/07/01 10:05:42;;;;;;;6.13;5.00;;;;;;;34.17;30.41;100947.16;5031696;28;20414;-66
2022/07/01 10:08:22;;;;;;;7.15;5.07;;;;;;;34.18;30.67;100951.59;5034659;28;20457;-64
2022/07/01 10:10:56;;;;;;;6.38;4.90;;;;;;;34.17;30.76;100952.69;5032257;28;20838;-67
2022/07/01 10:13:27;;;;;;;7.45;4.60;;;;;;;34.12;29.61;100943.78;5029210;28;20418;-66
2022/07/01 10:15:54;;;;;;;6.73;4.73;;;;;;;34.21;29.92;100947.38;5030659;28;20413;-64
2022/07/01 10:18:24;;;;;;;8.25;4.50;;;;;;;34.33;30.02;100939.25;5030415;28;20502;-68
2022/07/01 10:20:52;;;;;;;7.07;4.75;;;;;;;34.49;30.14;100938.75;5033866;28;20863;-64
2022/07/01 10:23:21;;;;;;;9.10;4.60;;;;;;;34.35;29.52;100948.00;5028002;28;20437;-64
2022/07/01 10:25:49;;;;;;;8.13;4.97;;;;;;;34.34;29.78;100951.06;5029272;28;20844;-68
2022/07/01 10:28:24;;;;;;;6.18;4.80;;;;;;;34.44;29.95;100942.47;5031178;28;20920;-66
2022/07/01 10:30:53;;;;;;;5.78;4.35;;;;;;;34.52;29.44;100936.16;5028364;28;20410;-67
2022/07/01 10:33:38;;;;;;;6.03;4.05;;;;;;;34.38;28.32;100935.53;5032062;28;20865;-66
2022/07/01 10:36:15;;;;;;;7.05;4.20;;;;;;;34.35;29.39;100931.50;5049249;28;20493;-64
2022/07/01 10:39:13;;;;;;;5.40;4.00;;;;;;;34.35;27.87;100925.19;5029803;28;20406;-66
2022/07/01 10:41:41;;;;;;;6.10;3.60;;;;;;;34.41;26.89;100919.19;5034516;28;20792;-66
2022/07/01 10:44:10;;;;;;;6.68;4.10;;;;;;;34.58;29.30;100920.28;5029612;28;20414;-66
2022/07/01 10:46:43;;;;;;;6.47;4.00;;;;;;;34.69;29.34;100915.22;5029964;28;20505;-65
2022/07/01 10:49:13;;;;;;;8.55;3.90;;;;;;;34.75;28.01;100916.69;5030325;28;20468;-66
2022/07/01 10:51:47;;;;;;;4.15;3.53;;;;;;;34.75;27.49;100911.19;5028206;28;20414;-69
2022/07/01 10:54:14;;;;;;;7.57;3.90;;;;;;;34.77;28.19;100904.22;5038441;28;20409;-66
2022/07/01 10:56:43;;;;;;;5.10;3.80;;;;;;;34.89;29.04;100902.72;5028203;28;20414;-67
2022/07/01 10:59:19;;;;;;;6.45;4.25;;;;;;;35.04;28.35;100902.97;5030475;28;20418;-63
2022/07/01 11:01:46;;;;;;;4.75;3.80;;;;;;;35.19;27.92;100906.28;5029083;28;20939;-64
2022/07/01 11:04:14;;;;;;;5.07;3.80;;;;;;;35.29;27.09;100889.38;5034898;28;20431;-63
2022/07/01 11:06:42;;;;;;;4.00;3.20;;;;;;;35.33;26.09;100892.28;5029546;28;20795;-66
2022/07/01 11:09:13;;;;;;;3.17;2.88;;;;;;;35.44;25.29;100898.22;5031490;28;20977;-67
2022/07/01 11:11:40;;;;;;;4.57;3.08;;;;;;;35.42;25.42;100885.59;5030241;28;20498;-66
2022/07/01 11:14:07;;;;;;;5.00;3.08;;;;;;;35.33;25.87;100887.59;5035499;28;20424;-64
2022/07/01 11:16:35;;;;;;;5.90;3.00;;;;;;;35.37;25.21;100883.03;5028403;28;20415;-63
2022/07/01 11:19:02;;;;;;;3.70;2.58;;;;;;;35.38;23.42;100875.56;5031377;28;20501;-64
2022/07/01 11:21:30;;;;;;;3.30;3.00;;;;;;;35.53;23.82;100871.38;5028934;28;20497;-67
2022/07/01 11:23:57;;;;;;;5.25;3.10;;;;;;;35.56;24.70;100866.00;5031637;28;20904;-69
2022/07/01 11:26:25;;;;;;;4.55;3.20;;;;;;;35.49;25.06;100860.25;5032502;28;20500;-65
2022/07/01 11:28:52;;;;;;;4.25;3.00;;;;;;;35.30;24.25;100854.38;5030986;28;20407;-65
2022/07/01 11:31:32;;;;;;;3.35;2.40;;;;;;;35.50;23.05;100859.09;5035606;28;20424;-64
2022/07/01 11:34:00;;;;;;;2.70;2.50;;;;;;;35.49;23.00;100853.91;5046822;28;20417;-64
2022/07/01 11:41:55;;;;;;;6.07;3.30;;;;;;;35.77;24.36;100846.72;5047690;28;20509;-65
2022/07/01 11:44:33;;;;;;;4.88;3.38;;;;;;;35.78;24.00;100842.00;5034006;28;20493;-64
2022/07/01 11:47:01;;;;;;;4.82;3.15;;;;;;;35.84;23.46;100845.41;5038380;28;20814;-66